< < Back
Terminal Aerodrome Forecast


Current Version              Previous Versions:   1  2  3  4  5  6  7  8  9  

Terminal Aerodrome Forecast

121
FTUS44 KMRX 020520
TAFCHA
TAF
KCHA 020520Z 0206/0306 36003KT P6SM SKC=

Latest METAR

367
SAUS80 KWBC 022200
MTRCHA
METAR KCHA 022153Z 35004KT 10SM FEW055 SCT150 BKN250 33/13 A2992 RMK AO2
SLP123 T03330133


USA.gov is the U.S. government's official web portal to all federal, state and local government web resources and services.